Time,TemperatureF,DewpointF,PressureIn,WindDirection,WindDirectionDegrees,WindSpeedMPH,WindSpeedGustMPH,Humidity,HourlyPrecipIn,Conditions,Clouds,dailyrainin,SolarRadiationWatts/m^2,SoftwareType,DateUTC
2017-03-29 00:00:00,42.6,34.4,-100.00,South,190,3.4,5.6,72,0.00,,,-99.99,1.0,Onset +HOBO +Station,2017-03-29 06:00:00,
2017-03-29 00:15:00,42.0,34.2,-100.00,South,190,4.0,6.7,73,0.00,,,-99.99,1.0,Onset +HOBO +Station,2017-03-29 06:15:00,
2017-03-29 00:30:00,41.3,33.7,-100.00,South,190,4.0,6.3,74,0.00,,,-99.99,1.0,Onset +HOBO +Station,2017-03-29 06:30:00,
2017-03-29 00:45:00,41.4,33.7,-100.00,South,190,2.9,5.1,73,0.00,,,-99.99,1.0,Onset +HOBO +Station,2017-03-29 06:45:00,
2017-03-29 01:00:00,41.0,33.7,-100.00,SSW,194,3.4,5.6,75,0.00,,,-99.99,1.0,Onset +HOBO +Station,2017-03-29 07:00:00,
2017-03-29 01:15:00,40.7,33.7,-100.00,SSW,194,4.5,6.3,75,0.00,,,-99.99,1.0,Onset +HOBO +Station,2017-03-29 07:15:00,
2017-03-29 01:30:00,40.7,33.6,-100.00,South,191,4.5,7.4,75,0.00,,,-99.99,1.0,Onset +HOBO +Station,2017-03-29 07:30:00,
2017-03-29 01:45:00,40.9,33.7,-100.00,SSW,201,4.0,6.7,75,0.00,,,-99.99,1.0,Onset +HOBO +Station,2017-03-29 07:45:00,
2017-03-29 02:00:00,39.7,33.4,-100.00,South,187,4.0,5.6,78,0.00,,,-99.99,1.0,Onset +HOBO +Station,2017-03-29 08:00:00,
2017-03-29 02:15:00,39.9,33.2,-100.00,South,171,2.9,5.1,76,0.00,,,-99.99,1.0,Onset +HOBO +Station,2017-03-29 08:15:00,
2017-03-29 02:30:00,39.9,32.8,-100.00,South,181,4.0,6.7,75,0.00,,,-99.99,1.0,Onset +HOBO +Station,2017-03-29 08:30:00,
2017-03-29 02:45:00,40.0,32.6,-100.00,South,184,0.7,3.4,74,0.00,,,-99.99,1.0,Onset +HOBO +Station,2017-03-29 08:45:00,
2017-03-29 03:00:00,39.2,32.7,-100.00,South,175,2.9,5.1,77,0.00,,,-99.99,1.0,Onset +HOBO +Station,2017-03-29 09:00:00,
2017-03-29 03:15:00,39.1,32.7,-100.00,South,173,1.8,4.0,77,0.00,,,-99.99,1.0,Onset +HOBO +Station,2017-03-29 09:15:00,
2017-03-29 03:30:00,39.4,32.8,-100.00,South,174,0.7,3.4,77,0.00,,,-99.99,1.0,Onset +HOBO +Station,2017-03-29 09:30:00,
2017-03-29 03:45:00,38.9,32.8,-100.00,South,181,2.9,5.6,78,0.00,,,-99.99,1.0,Onset +HOBO +Station,2017-03-29 09:45:00,
2017-03-29 04:00:00,38.3,32.6,-100.00,SSW,197,3.4,6.7,79,0.00,,,-99.99,1.0,Onset +HOBO +Station,2017-03-29 10:00:00,
2017-03-29 04:15:00,37.8,32.5,-100.00,SSW,197,4.0,6.3,80,0.00,,,-99.99,1.0,Onset +HOBO +Station,2017-03-29 10:15:00,
2017-03-29 04:30:00,38.6,32.5,-100.00,SSW,213,4.0,7.8,78,0.00,,,-99.99,1.0,Onset +HOBO +Station,2017-03-29 10:30:00,
2017-03-29 04:45:00,38.0,32.5,-100.00,SW,227,3.4,6.3,80,0.00,,,-99.99,1.0,Onset +HOBO +Station,2017-03-29 10:45:00,
2017-03-29 05:00:00,37.8,32.3,-100.00,WSW,258,4.0,7.4,80,0.00,,,-99.99,1.0,Onset +HOBO +Station,2017-03-29 11:00:00,
2017-03-29 05:15:00,38.5,32.4,-100.00,West,278,2.2,6.3,78,0.00,,,-99.99,1.0,Onset +HOBO +Station,2017-03-29 11:15:00,
2017-03-29 05:30:00,38.7,32.0,-100.00,WSW,246,1.1,3.4,76,0.00,,,-99.99,1.0,Onset +HOBO +Station,2017-03-29 11:30:00,
2017-03-29 05:45:00,39.1,32.0,-100.00,WSW,240,3.4,5.6,75,0.00,,,-99.99,1.0,Onset +HOBO +Station,2017-03-29 11:45:00,
2017-03-29 06:00:00,37.6,31.8,-100.00,SSW,201,3.4,5.6,79,0.00,,,-99.99,1.0,Onset +HOBO +Station,2017-03-29 12:00:00,
2017-03-29 06:15:00,37.4,32.1,-100.00,South,174,4.5,6.3,81,0.00,,,-99.99,1.0,Onset +HOBO +Station,2017-03-29 12:15:00,
2017-03-29 06:30:00,38.1,32.6,-100.00,South,171,3.4,5.6,80,0.00,,,-99.99,1.0,Onset +HOBO +Station,2017-03-29 12:30:00,
2017-03-29 06:45:00,38.3,32.9,-100.00,South,180,1.1,3.4,80,0.00,,,-99.99,2.0,Onset +HOBO +Station,2017-03-29 12:45:00,
2017-03-29 07:00:00,37.8,32.4,-100.00,South,180,1.1,3.4,80,0.00,,,-99.99,7.0,Onset +HOBO +Station,2017-03-29 13:00:00,
2017-03-29 07:15:00,38.8,33.2,-100.00,South,180,0.0,2.2,80,0.00,,,-99.99,26.0,Onset +HOBO +Station,2017-03-29 13:15:00,
2017-03-29 07:30:00,38.4,32.8,-100.00,South,180,1.1,4.0,80,0.00,,,-99.99,36.0,Onset +HOBO +Station,2017-03-29 13:30:00,
2017-03-29 07:45:00,40.9,34.5,-100.00,South,180,0.7,3.4,77,0.00,,,-99.99,122.0,Onset +HOBO +Station,2017-03-29 13:45:00,
2017-03-29 08:00:00,42.0,34.5,-100.00,South,180,1.1,3.4,74,0.00,,,-99.99,217.0,Onset +HOBO +Station,2017-03-29 14:00:00,
2017-03-29 08:15:00,41.2,33.9,-100.00,South,187,2.9,5.6,74,0.00,,,-99.99,121.0,Onset +HOBO +Station,2017-03-29 14:15:00,
2017-03-29 08:30:00,40.6,33.9,-100.00,South,181,4.5,6.7,76,0.00,,,-99.99,106.0,Onset +HOBO +Station,2017-03-29 14:30:00,
2017-03-29 08:45:00,40.9,34.4,-100.00,South,190,4.5,7.4,77,0.00,,,-99.99,141.0,Onset +HOBO +Station,2017-03-29 14:45:00,
2017-03-29 09:00:00,42.5,35.2,-100.00,SSW,197,4.0,8.5,75,0.00,,,-99.99,271.0,Onset +HOBO +Station,2017-03-29 15:00:00,
2017-03-29 09:15:00,43.1,35.5,-100.00,South,191,5.6,8.5,74,0.00,,,-99.99,274.0,Onset +HOBO +Station,2017-03-29 15:15:00,
2017-03-29 09:30:00,45.4,36.9,-100.00,SSW,195,4.5,7.4,72,0.00,,,-99.99,372.0,Onset +HOBO +Station,2017-03-29 15:30:00,
2017-03-29 09:45:00,46.7,37.6,-100.00,SSW,205,5.1,9.6,70,0.00,,,-99.99,443.0,Onset +HOBO +Station,2017-03-29 15:45:00,
2017-03-29 10:00:00,48.7,37.8,-100.00,SSW,201,6.3,10.7,65,0.00,,,-99.99,488.0,Onset +HOBO +Station,2017-03-29 16:00:00,
2017-03-29 10:15:00,49.2,37.0,-100.00,SSW,206,7.8,11.9,62,0.00,,,-99.99,558.0,Onset +HOBO +Station,2017-03-29 16:15:00,
2017-03-29 10:30:00,52.2,38.9,-100.00,SSW,204,6.7,11.9,60,0.00,,,-99.99,487.0,Onset +HOBO +Station,2017-03-29 16:30:00,
2017-03-29 10:45:00,52.2,37.5,-100.00,SSW,199,5.1,9.6,57,0.00,,,-99.99,357.0,Onset +HOBO +Station,2017-03-29 16:45:00,
2017-03-29 11:00:00,53.0,36.9,-100.00,SSW,198,6.3,12.3,54,0.00,,,-99.99,424.0,Onset +HOBO +Station,2017-03-29 17:00:00,
2017-03-29 11:15:00,52.7,34.6,-100.00,SSW,195,5.6,10.7,49,0.00,,,-99.99,308.0,Onset +HOBO +Station,2017-03-29 17:15:00,
2017-03-29 11:30:00,54.5,33.7,-100.00,South,191,4.5,8.9,45,0.00,,,-99.99,339.0,Onset +HOBO +Station,2017-03-29 17:30:00,
2017-03-29 11:45:00,53.3,33.0,-100.00,SSW,206,4.5,8.5,46,0.00,,,-99.99,273.0,Onset +HOBO +Station,2017-03-29 17:45:00,
2017-03-29 12:00:00,54.4,32.8,-100.00,SW,215,3.4,8.9,43,0.00,,,-99.99,291.0,Onset +HOBO +Station,2017-03-29 18:00:00,
2017-03-29 12:15:00,54.9,32.5,-100.00,WSW,244,2.2,6.3,42,0.00,,,-99.99,304.0,Onset +HOBO +Station,2017-03-29 18:15:00,
2017-03-29 12:30:00,56.1,33.6,-100.00,WSW,240,2.2,7.4,42,0.00,,,-99.99,461.0,Onset +HOBO +Station,2017-03-29 18:30:00,
2017-03-29 12:45:00,57.5,33.2,-100.00,WSW,246,2.2,7.8,39,0.00,,,-99.99,543.0,Onset +HOBO +Station,2017-03-29 18:45:00,
2017-03-29 13:00:00,58.4,33.0,-100.00,SSW,211,1.8,6.3,38,0.00,,,-99.99,456.0,Onset +HOBO +Station,2017-03-29 19:00:00,
2017-03-29 13:15:00,56.8,33.2,-100.00,East,91,2.2,6.7,40,0.00,,,-99.99,509.0,Onset +HOBO +Station,2017-03-29 19:15:00,
2017-03-29 13:30:00,57.8,33.3,-100.00,SE,140,1.1,6.7,39,0.00,,,-99.99,357.0,Onset +HOBO +Station,2017-03-29 19:30:00,
2017-03-29 13:45:00,57.5,33.8,-100.00,SE,138,4.0,8.5,40,0.00,,,-99.99,419.0,Onset +HOBO +Station,2017-03-29 19:45:00,
2017-03-29 14:00:00,63.0,35.6,-100.00,ESE,115,2.2,9.6,35,0.00,,,-99.99,732.0,Onset +HOBO +Station,2017-03-29 20:00:00,
2017-03-29 14:15:00,62.2,35.2,-100.00,SE,129,2.2,6.7,36,0.00,,,-99.99,768.0,Onset +HOBO +Station,2017-03-29 20:15:00,
2017-03-29 14:30:00,61.7,35.3,-100.00,South,185,3.4,7.8,37,0.00,,,-99.99,671.0,Onset +HOBO +Station,2017-03-29 20:30:00,
2017-03-29 14:45:00,63.1,36.3,-100.00,SE,145,2.9,8.9,36,0.00,,,-99.99,649.0,Onset +HOBO +Station,2017-03-29 20:45:00,
2017-03-29 15:00:00,63.4,35.7,-100.00,South,177,4.0,10.7,35,0.00,,,-99.99,641.0,Onset +HOBO +Station,2017-03-29 21:00:00,
2017-03-29 15:15:00,60.5,34.8,-100.00,SW,225,4.5,13.0,38,0.00,,,-99.99,686.0,Onset +HOBO +Station,2017-03-29 21:15:00,
2017-03-29 15:30:00,63.2,35.6,-100.00,South,170,4.0,11.2,35,0.00,,,-99.99,453.0,Onset +HOBO +Station,2017-03-29 21:30:00,
2017-03-29 15:45:00,64.3,35.8,-100.00,SSE,156,1.8,6.3,34,0.00,,,-99.99,576.0,Onset +HOBO +Station,2017-03-29 21:45:00,
2017-03-29 16:00:00,64.3,35.3,-100.00,SSW,192,2.9,6.7,33,0.00,,,-99.99,267.0,Onset +HOBO +Station,2017-03-29 22:00:00,
2017-03-29 16:15:00,62.3,34.7,-100.00,NE,45,1.8,7.4,35,0.00,,,-99.99,258.0,Onset +HOBO +Station,2017-03-29 22:15:00,
2017-03-29 16:30:00,63.4,35.0,-100.00,East,80,1.8,5.1,34,0.00,,,-99.99,259.0,Onset +HOBO +Station,2017-03-29 22:30:00,
2017-03-29 16:45:00,62.5,34.7,-100.00,NNE,18,2.9,6.7,35,0.00,,,-99.99,192.0,Onset +HOBO +Station,2017-03-29 22:45:00,
2017-03-29 17:00:00,62.1,34.5,-100.00,NNE,28,4.0,9.6,35,0.00,,,-99.99,171.0,Onset +HOBO +Station,2017-03-29 23:00:00,
2017-03-29 17:15:00,61.6,34.4,-100.00,NNE,18,5.6,8.9,36,0.00,,,-99.99,157.0,Onset +HOBO +Station,2017-03-29 23:15:00,
2017-03-29 17:30:00,61.2,36.0,-100.00,NE,42,5.6,11.2,38,0.00,,,-99.99,124.0,Onset +HOBO +Station,2017-03-29 23:30:00,
2017-03-29 17:45:00,60.8,38.0,-100.00,NE,52,8.5,12.3,42,0.00,,,-99.99,174.0,Onset +HOBO +Station,2017-03-29 23:45:00,
2017-03-29 18:00:00,60.3,38.1,-100.00,ENE,63,8.5,12.3,43,0.00,,,-99.99,153.0,Onset +HOBO +Station,2017-03-30 00:00:00,
2017-03-29 18:15:00,60.9,37.4,-100.00,ENE,58,7.4,11.9,41,0.00,,,-99.99,223.0,Onset +HOBO +Station,2017-03-30 00:15:00,
2017-03-29 18:30:00,60.8,37.8,-100.00,ENE,62,5.6,11.2,42,0.00,,,-99.99,89.0,Onset +HOBO +Station,2017-03-30 00:30:00,
2017-03-29 18:45:00,60.1,37.8,-100.00,ENE,63,4.0,9.6,43,0.00,,,-99.99,57.0,Onset +HOBO +Station,2017-03-30 00:45:00,
2017-03-29 19:00:00,60.0,37.9,-100.00,ENE,76,2.2,8.9,43,0.00,,,-99.99,39.0,Onset +HOBO +Station,2017-03-30 01:00:00,
2017-03-29 19:15:00,58.9,37.7,-100.00,East,90,2.2,6.3,45,0.00,,,-99.99,8.0,Onset +HOBO +Station,2017-03-30 01:15:00,
2017-03-29 19:30:00,58.5,37.3,-100.00,SE,136,1.8,5.6,45,0.00,,,-99.99,2.0,Onset +HOBO +Station,2017-03-30 01:30:00,
2017-03-29 19:45:00,57.9,38.0,-100.00,South,191,0.7,5.1,47,0.00,,,-99.99,1.0,Onset +HOBO +Station,2017-03-30 01:45:00,
2017-03-29 20:00:00,57.8,38.0,-100.00,NNW,341,2.2,4.5,47,0.00,,,-99.99,1.0,Onset +HOBO +Station,2017-03-30 02:00:00,
2017-03-29 20:15:00,57.5,37.9,-100.00,North,351,1.8,4.0,47,0.00,,,-99.99,1.0,Onset +HOBO +Station,2017-03-30 02:15:00,
2017-03-29 20:30:00,57.4,37.8,-100.00,North,352,0.7,2.9,47,0.00,,,-99.99,1.0,Onset +HOBO +Station,2017-03-30 02:30:00,
2017-03-29 20:45:00,56.9,37.8,-100.00,North,350,1.8,4.0,48,0.00,,,-99.99,1.0,Onset +HOBO +Station,2017-03-30 02:45:00,
2017-03-29 21:00:00,57.0,38.5,-100.00,North,355,0.7,5.6,49,0.00,,,-99.99,1.0,Onset +HOBO +Station,2017-03-30 03:00:00,
2017-03-29 21:15:00,56.1,39.1,-100.00,SSE,154,2.9,6.7,52,0.00,,,-99.99,1.0,Onset +HOBO +Station,2017-03-30 03:15:00,